If you wish to contribute or participate in the discussions about articles you are invited to join SKYbrary as a registered user

 Actions

Sialkot International Airport

From SKYbrary Wiki

OPST
Airport
ICAO: OPST – IATA: SKT
Summary
Name Sialkot International Airport
Region Asia and Pacific
Territory Pakistan PK.gif
Location Sialkot, Sialkot
Serving Sialkot
Elevation 255.118 m
837 ft
837 ft255.118 m
Coordinates 32° 32' 1.20" N, 74° 21' 47.34" E
Runways
Designator Length Width Surface ROPS
22L/04R 3600 m11,811.024 ft
46 m150.919 ft
'asphalt' /


METAR
Observation OPST 191400Z 31004KT 5000 FU FEW200 25/16 Q1009 NOSIG RH57
Station Sialkot Airport
Date/Time 19 April 2019 14:00:00
Wind direction 310°
Wind speed 04 kts
Lowest cloud amount few clouds
Temperature 25°C
Dew point 16°C
Humidity 57%
QNH 1009 hPa
Weather condition n/a

Sialkot International Airport is situated 14 km7.559 nm
14,000 m
45,931.759 ft
west of Sialkot in the Sialkot District of Pakistan.

Climatology

Humid subtropical Climate/Winter-rainfall climate (Köppen climate classification Cwa).

Maps

Terrain

Loading map...

Airport Layout

Loading map...


Accidents & Serious Incidents at or in vicinity of OPST

None on SKYbrary